Estación Meteorológica Peña el Pijo (Robertgarden) [ 07/21/17 06:36:27 CEST ]

Fecha Hora Presion(HPa) Temp (°C) Humedad % Rocio (°C) Viento ( m/s) Direccion Lluvia 1Hora(mm) Lluvia 24H(mm) LLuvia Total(mm)
2017-Mar-28 01:01:53 1014.400 6.1 72 1.4       1.03 1357.16
2017-Mar-28 02:01:57 1014.600 5.1 75 1.0       0.51 1357.16
2017-Mar-28 03:01:48 1014.700 5.0 77 1.3       0.51 1357.16
2017-Mar-28 04:01:50 1014.300 4.3 79 1.0       0.51 1357.16
2017-Mar-28 05:01:50 1014.300 3.9 81 1.0       0.51 1357.16
2017-Mar-28 06:01:51 1014.400 3.3 82 0.5       0.51 1357.16
2017-Mar-28 07:01:50 1014.600 3.0 82 0.2         1357.16
2017-Mar-28 08:01:47 1014.800 1.9 83 -0.7         1357.16
2017-Mar-28 09:01:43 1015.500 2.9 84 0.4         1357.16
2017-Mar-28 10:01:31 1015.700 9.0 84 6.4         1357.16
2017-Mar-28 11:01:54 1016.000 14.9 57 6.4         1357.16
2017-Mar-28 12:01:45 1016.200 18.6 40 4.7         1357.16
2017-Mar-28 13:01:51 1016.400 18.9 38 4.2         1357.16
2017-Mar-28 14:01:55 1016.500 16.2 44 3.9         1357.16
2017-Mar-28 15:01:44 1016.000 16.1 44 3.8         1357.16
2017-Mar-28 16:01:59 1015.600 17.2 42 4.1         1357.16
2017-Mar-28 17:01:49 1015.300 18.8 37 3.7         1357.16
2017-Mar-28 18:01:35 1015.600 16.7 40 3.0         1357.16
2017-Mar-28 19:01:53 1015.900 16.9 43 4.2         1357.16
2017-Mar-28 20:01:44 1016.200 14.8 48 3.9         1357.16
2017-Mar-28 21:01:43 1016.500 12.8 53 3.4         1357.16
2017-Mar-28 22:01:52 1017.100 11.3 58 3.3         1357.16
2017-Mar-28 23:01:47 1017.800 10.5 62 3.5         1357.16

Temperatura Máxima:18°    Temperatura Mínima:
Presión Máxima:1017.800 Hpa    Presión Mínima:1014.300 Hpa


Volver